Time;durP1;ratioP1;P1;durP2;ratioP2;P2;SDS_P1;SDS_P2;PMS_P1;PMS_P2;Temp;Humidity;BMP_temperature;BMP_pressure;BME280_temperature;BME280_humidity;BME280_pressure;Samples;Min_cycle;Max_cycle;Signal;HPM_P1;HPM_P2
2021/07/25 00:00:41;;;;;;;1.48;1.35;;;;;;;;;;5028334;28;20033;-68
2021/07/25 00:03:07;;;;;;;1.52;1.42;;;;;;;;;;5030004;28;20260;-68
2021/07/25 00:05:33;;;;;;;1.80;1.40;;;;;;;;;;5029042;28;20755;-68
2021/07/25 00:08:00;;;;;;;1.23;1.10;;;;;;;;;;5029173;28;20029;-68
2021/07/25 00:10:26;;;;;;;2.25;1.42;;;;;;;;;;5028620;28;20029;-68
2021/07/25 00:12:52;;;;;;;1.52;1.33;;;;;;;;;;5029205;28;20418;-68
2021/07/25 00:15:19;;;;;;;1.58;1.45;;;;;;;;;;5028765;28;20021;-68
2021/07/25 00:17:45;;;;;;;1.30;1.20;;;;;;;;;;5028688;28;20108;-68
2021/07/25 00:20:11;;;;;;;1.77;1.58;;;;;;;;;;5027390;28;20028;-67
2021/07/25 00:22:37;;;;;;;1.85;1.70;;;;;;;;;;5028970;28;20055;-67
2021/07/25 00:25:12;;;;;;;1.92;1.40;;;;;;;;;;5029193;28;20080;-67
2021/07/25 00:27:40;;;;;;;1.90;1.30;;;;;;;;;;5028621;28;20051;-67
2021/07/25 00:30:14;;;;;;;1.75;1.30;;;;;;;;;;5029357;28;20021;-68
2021/07/25 00:32:40;;;;;;;1.57;1.47;;;;;;;;;;5028747;28;20025;-68
2021/07/25 00:35:07;;;;;;;1.85;1.30;;;;;;;;;;5029308;28;20503;-68
2021/07/25 00:37:34;;;;;;;1.40;1.30;;;;;;;;;;5028250;28;20029;-68
2021/07/25 00:40:00;;;;;;;1.88;1.20;;;;;;;;;;5028669;28;20040;-68
2021/07/25 00:42:26;;;;;;;1.20;1.10;;;;;;;;;;5026851;28;20045;-68
2021/07/25 00:44:52;;;;;;;1.48;1.38;;;;;;;;;;5028500;28;20063;-67
2021/07/25 00:47:18;;;;;;;1.30;1.20;;;;;;;;;;5041096;28;20553;-68
2021/07/25 00:49:44;;;;;;;1.50;1.33;;;;;;;;;;5046792;28;20039;-68
2021/07/25 00:52:10;;;;;;;2.13;1.40;;;;;;;;;;5048366;28;20149;-68
2021/07/25 00:54:37;;;;;;;1.40;1.30;;;;;;;;;;5049004;28;20100;-68
2021/07/25 00:57:03;;;;;;;1.50;1.40;;;;;;;;;;5036961;28;20029;-68
2021/07/25 00:59:29;;;;;;;1.40;1.30;;;;;;;;;;5028036;28;20036;-68
2021/07/25 01:01:55;;;;;;;1.55;1.45;;;;;;;;;;5027696;28;20408;-68
2021/07/25 01:04:53;;;;;;;1.30;1.20;;;;;;;;;;5027120;28;20025;-68
2021/07/25 01:07:38;;;;;;;1.58;1.20;;;;;;;;;;5048501;28;20057;-68
2021/07/25 01:10:07;;;;;;;1.70;1.40;;;;;;;;;;5048553;28;20036;-68
2021/07/25 01:12:44;;;;;;;1.40;1.30;;;;;;;;;;5048275;28;20510;-68
2021/07/25 01:15:13;;;;;;;1.92;1.60;;;;;;;;;;5031511;28;20579;-68
2021/07/25 01:17:39;;;;;;;1.40;1.30;;;;;;;;;;5027355;28;20026;-68
2021/07/25 01:20:10;;;;;;;1.48;1.38;;;;;;;;;;5028163;28;20588;-69
2021/07/25 01:22:40;;;;;;;1.30;1.20;;;;;;;;;;5027748;28;20044;-68
2021/07/25 01:25:07;;;;;;;1.17;1.08;;;;;;;;;;5028276;28;20088;-68
2021/07/25 01:27:40;;;;;;;1.90;1.50;;;;;;;;;;5041736;28;20033;-68
2021/07/25 01:30:08;;;;;;;1.75;1.40;;;;;;;;;;5048256;28;20032;-68
2021/07/25 01:32:35;;;;;;;1.55;1.40;;;;;;;;;;5047724;28;20805;-68
2021/07/25 01:35:02;;;;;;;1.30;1.20;;;;;;;;;;5045640;28;20029;-68
2021/07/25 01:37:30;;;;;;;1.60;1.50;;;;;;;;;;5032915;28;20026;-68
2021/07/25 01:39:56;;;;;;;1.10;1.00;;;;;;;;;;5027659;28;20040;-68
2021/07/25 01:42:26;;;;;;;1.15;1.05;;;;;;;;;;5026982;28;20029;-68
2021/07/25 01:44:52;;;;;;;1.42;1.33;;;;;;;;;;5027485;28;20130;-67
2021/07/25 01:47:18;;;;;;;1.58;1.33;;;;;;;;;;5037021;28;20029;-67
2021/07/25 01:49:45;;;;;;;1.52;1.23;;;;;;;;;;5046764;28;20029;-68
2021/07/25 01:52:11;;;;;;;1.60;1.48;;;;;;;;;;5047217;28;20487;-68
2021/07/25 01:54:37;;;;;;;1.60;1.50;;;;;;;;;;5047862;28;20483;-68
2021/07/25 01:57:03;;;;;;;1.50;1.30;;;;;;;;;;5038196;28;20649;-68
2021/07/25 01:59:29;;;;;;;1.85;1.60;;;;;;;;;;5026912;28;20022;-68
2021/07/25 02:01:55;;;;;;;1.77;1.50;;;;;;;;;;5026184;28;20036;-68
2021/07/25 02:04:21;;;;;;;1.65;1.50;;;;;;;;;;5046134;28;20033;-68
2021/07/25 02:06:47;;;;;;;1.95;1.48;;;;;;;;;;5040330;28;20039;-68
2021/07/25 02:09:13;;;;;;;1.23;1.10;;;;;;;;;;5025235;28;20512;-68
2021/07/25 02:11:39;;;;;;;1.75;1.30;;;;;;;;;;5026333;28;20533;-67
2021/07/25 02:14:06;;;;;;;1.80;1.48;;;;;;;;;;5027478;28;20060;-67
2021/07/25 02:16:32;;;;;;;1.30;1.20;;;;;;;;;;5025737;28;20045;-67
2021/07/25 02:18:58;;;;;;;1.27;1.17;;;;;;;;;;5026580;28;20036;-67
2021/07/25 02:21:24;;;;;;;1.40;1.30;;;;;;;;;;5026312;28;20459;-68
2021/07/25 02:23:50;;;;;;;1.25;1.15;;;;;;;;;;5026806;28;20033;-67
2021/07/25 02:26:16;;;;;;;1.52;1.42;;;;;;;;;;5026402;28;20126;-67
2021/07/25 02:28:42;;;;;;;1.55;1.20;;;;;;;;;;5028829;28;20430;-67
2021/07/25 02:31:08;;;;;;;1.40;1.30;;;;;;;;;;5025560;28;20025;-67
2021/07/25 02:33:34;;;;;;;1.55;1.45;;;;;;;;;;5037213;28;20463;-68
2021/07/25 02:36:00;;;;;;;1.80;1.55;;;;;;;;;;5046577;28;20021;-68
2021/07/25 02:38:27;;;;;;;1.67;1.50;;;;;;;;;;5046388;28;20072;-68
2021/07/25 02:40:53;;;;;;;1.65;1.50;;;;;;;;;;5046471;28;20033;-68
2021/07/25 02:43:19;;;;;;;2.65;1.75;;;;;;;;;;5035990;28;20036;-67
2021/07/25 02:45:45;;;;;;;1.80;1.40;;;;;;;;;;5026391;28;20407;-68
2021/07/25 02:48:11;;;;;;;2.00;1.58;;;;;;;;;;5025842;28;20029;-67
2021/07/25 02:50:37;;;;;;;1.58;1.48;;;;;;;;;;5026575;28;20030;-67
2021/07/25 02:53:03;;;;;;;1.65;1.52;;;;;;;;;;5026647;28;20385;-67
2021/07/25 02:55:30;;;;;;;4.60;1.63;;;;;;;;;;5026273;28;20851;-67
2021/07/25 02:57:56;;;;;;;1.90;1.60;;;;;;;;;;5025141;28;20126;-67
2021/07/25 03:00:22;;;;;;;1.40;1.30;;;;;;;;;;5025606;28;20025;-67
2021/07/25 03:02:48;;;;;;;1.67;1.40;;;;;;;;;;5029188;28;20071;-69
2021/07/25 03:05:14;;;;;;;1.30;1.20;;;;;;;;;;5034781;28;20053;-68
2021/07/25 03:07:41;;;;;;;1.95;1.40;;;;;;;;;;5046058;28;20577;-68
2021/07/25 03:10:07;;;;;;;1.48;1.38;;;;;;;;;;5030469;28;20017;-68
2021/07/25 03:12:33;;;;;;;2.30;2.10;;;;;;;;;;5025707;28;20108;-68
2021/07/25 03:14:59;;;;;;;1.98;1.70;;;;;;;;;;5024756;28;20030;-67
2021/07/25 03:17:25;;;;;;;1.90;1.58;;;;;;;;;;5024500;28;20507;-67
2021/07/25 03:19:51;;;;;;;2.10;1.70;;;;;;;;;;5024920;28;20025;-67
2021/07/25 03:22:20;;;;;;;1.55;1.17;;;;;;;;;;5024237;28;20045;-67
2021/07/25 03:24:46;;;;;;;2.25;1.50;;;;;;;;;;5023701;28;20652;-67
2021/07/25 03:27:12;;;;;;;2.88;1.58;;;;;;;;;;5024802;28;20034;-67
2021/07/25 03:29:39;;;;;;;1.70;1.60;;;;;;;;;;5028286;28;20025;-67
2021/07/25 03:32:05;;;;;;;1.77;1.33;;;;;;;;;;5028994;28;20087;-67
2021/07/25 03:34:34;;;;;;;1.92;1.63;;;;;;;;;;5028238;28;20053;-67
2021/07/25 03:37:01;;;;;;;2.22;1.70;;;;;;;;;;5028370;28;20025;-67
2021/07/25 03:39:27;;;;;;;1.52;1.42;;;;;;;;;;5028353;28;20053;-68
2021/07/25 03:41:53;;;;;;;1.95;1.73;;;;;;;;;;5028163;28;20052;-67
2021/07/25 03:44:20;;;;;;;1.63;1.50;;;;;;;;;;5028264;28;20033;-67
2021/07/25 03:46:46;;;;;;;2.63;1.60;;;;;;;;;;5028507;28;20025;-67
2021/07/25 03:49:12;;;;;;;1.23;1.13;;;;;;;;;;5027665;28;20025;-67
2021/07/25 03:51:39;;;;;;;1.40;1.30;;;;;;;;;;5028254;28;20022;-67
2021/07/25 03:54:08;;;;;;;2.78;1.70;;;;;;;;;;5028675;28;20029;-67
2021/07/25 03:56:36;;;;;;;1.42;1.33;;;;;;;;;;5028256;28;20049;-68
2021/07/25 03:59:02;;;;;;;1.88;1.38;;;;;;;;;;5028555;28;20515;-68
2021/07/25 04:01:29;;;;;;;1.85;1.40;;;;;;;;;;5025996;28;20080;-68
2021/07/25 04:03:54;;;;;;;1.63;1.38;;;;;;;;;;5028065;28;20025;-68
2021/07/25 04:06:21;;;;;;;1.58;1.48;;;;;;;;;;5027545;28;20040;-68
2021/07/25 04:08:47;;;;;;;1.98;1.73;;;;;;;;;;5027827;28;20027;-68
2021/07/25 04:11:17;;;;;;;3.00;1.88;;;;;;;;;;5027162;28;20500;-68
2021/07/25 04:13:43;;;;;;;1.40;1.30;;;;;;;;;;5027477;28;20022;-67
2021/07/25 04:16:10;;;;;;;1.70;1.45;;;;;;;;;;5027622;28;20048;-67
2021/07/25 04:18:36;;;;;;;1.30;1.20;;;;;;;;;;5028114;28;20469;-67
2021/07/25 04:21:02;;;;;;;1.50;1.30;;;;;;;;;;5027818;28;20115;-67
2021/07/25 04:23:28;;;;;;;1.77;0.93;;;;;;;;;;5027194;28;20419;-67
2021/07/25 04:25:54;;;;;;;1.58;1.35;;;;;;;;;;5027243;28;20029;-67
2021/07/25 04:28:20;;;;;;;2.63;1.42;;;;;;;;;;5026995;28;20025;-67
2021/07/25 04:30:46;;;;;;;1.48;1.35;;;;;;;;;;5027431;28;20025;-68
2021/07/25 04:33:15;;;;;;;1.45;1.35;;;;;;;;;;5026989;28;20028;-68
2021/07/25 04:35:41;;;;;;;2.33;1.30;;;;;;;;;;5027278;28;20021;-68
2021/07/25 04:38:08;;;;;;;1.30;1.20;;;;;;;;;;5027381;28;20541;-68
2021/07/25 04:40:34;;;;;;;1.90;1.50;;;;;;;;;;5026517;28;20091;-68
2021/07/25 04:43:01;;;;;;;1.52;1.20;;;;;;;;;;5027170;28;20112;-68
2021/07/25 04:45:34;;;;;;;1.48;1.38;;;;;;;;;;5026819;28;20506;-67
2021/07/25 04:48:19;;;;;;;1.50;1.40;;;;;;;;;;5026803;28;20132;-67
2021/07/25 04:50:46;;;;;;;1.90;1.50;;;;;;;;;;5027059;28;20068;-67
2021/07/25 04:53:19;;;;;;;1.83;1.60;;;;;;;;;;5026689;28;20025;-67
2021/07/25 04:55:47;;;;;;;1.95;1.30;;;;;;;;;;5026916;28;20496;-67
2021/07/25 04:58:14;;;;;;;2.15;1.65;;;;;;;;;;5026665;28;20029;-68
2021/07/25 05:00:49;;;;;;;2.15;1.30;;;;;;;;;;5026289;28;20029;-68
2021/07/25 05:03:15;;;;;;;1.58;1.40;;;;;;;;;;5026363;28;20030;-68
2021/07/25 05:05:41;;;;;;;2.95;1.73;;;;;;;;;;5026815;28;20029;-68
2021/07/25 05:08:07;;;;;;;1.58;1.40;;;;;;;;;;5026544;28;20057;-68
2021/07/25 05:10:34;;;;;;;1.48;1.30;;;;;;;;;;5026833;28;20025;-68
2021/07/25 05:13:05;;;;;;;1.48;1.38;;;;;;;;;;5026720;28;20474;-68
2021/07/25 05:15:32;;;;;;;1.50;1.35;;;;;;;;;;5026522;28;20465;-68
2021/07/25 05:18:08;;;;;;;1.65;1.30;;;;;;;;;;5026179;28;20034;-67
2021/07/25 05:20:34;;;;;;;1.65;1.50;;;;;;;;;;5026740;28;20036;-67
2021/07/25 05:23:00;;;;;;;2.20;1.63;;;;;;;;;;5026434;28;20150;-67
2021/07/25 05:25:28;;;;;;;1.55;1.30;;;;;;;;;;5025960;28;20028;-67
2021/07/25 05:27:55;;;;;;;1.60;1.38;;;;;;;;;;5026198;28;20039;-67
2021/07/25 05:30:22;;;;;;;1.73;1.38;;;;;;;;;;5025940;28;20097;-68
2021/07/25 05:32:49;;;;;;;1.65;1.45;;;;;;;;;;5026299;28;20159;-67
2021/07/25 05:35:15;;;;;;;1.65;1.50;;;;;;;;;;5024560;28;20408;-68
2021/07/25 05:37:41;;;;;;;2.00;1.42;;;;;;;;;;5024633;28;20028;-68
2021/07/25 05:40:08;;;;;;;1.50;1.20;;;;;;;;;;5026321;28;20033;-68
2021/07/25 05:42:35;;;;;;;1.38;1.27;;;;;;;;;;5026513;28;20029;-68
2021/07/25 05:45:03;;;;;;;1.30;1.20;;;;;;;;;;5025940;28;20063;-68
2021/07/25 05:47:29;;;;;;;1.58;1.17;;;;;;;;;;5032652;28;20104;-68
2021/07/25 05:49:55;;;;;;;2.20;1.33;;;;;;;;;;5034353;28;20026;-67
2021/07/25 05:52:21;;;;;;;1.48;1.38;;;;;;;;;;5025761;28;20018;-67
2021/07/25 05:54:47;;;;;;;1.40;1.30;;;;;;;;;;5029662;28;20025;-67
2021/07/25 05:57:13;;;;;;;1.35;1.10;;;;;;;;;;5043057;28;20029;-67
2021/07/25 05:59:39;;;;;;;1.58;1.45;;;;;;;;;;5044949;28;20095;-68
2021/07/25 06:02:05;;;;;;;1.60;1.50;;;;;;;;;;5044786;28;20021;-68
2021/07/25 06:04:31;;;;;;;1.42;1.33;;;;;;;;;;5045343;28;20036;-68
2021/07/25 06:06:57;;;;;;;1.65;1.45;;;;;;;;;;5045475;28;20052;-68
2021/07/25 06:09:24;;;;;;;1.38;1.27;;;;;;;;;;5045297;28;20033;-68
2021/07/25 06:11:50;;;;;;;1.40;1.25;;;;;;;;;;5045592;28;20096;-68
2021/07/25 06:14:16;;;;;;;1.42;1.15;;;;;;;;;;5045200;28;20100;-68
2021/07/25 06:16:42;;;;;;;1.67;1.40;;;;;;;;;;5044885;28;20021;-74
2021/07/25 06:19:08;;;;;;;1.33;1.20;;;;;;;;;;5045941;28;20031;-73
2021/07/25 06:21:34;;;;;;;2.10;1.27;;;;;;;;;;5045002;28;20539;-74
2021/07/25 06:24:00;;;;;;;1.20;1.10;;;;;;;;;;5033197;28;20156;-74
2021/07/25 06:26:26;;;;;;;1.30;1.20;;;;;;;;;;5046111;28;20559;-74
2021/07/25 06:28:53;;;;;;;1.20;1.10;;;;;;;;;;5037423;28;20075;-72
2021/07/25 06:31:20;;;;;;;1.58;1.27;;;;;;;;;;5041492;28;20075;-74
2021/07/25 06:33:46;;;;;;;1.70;1.20;;;;;;;;;;5046399;28;20104;-74
2021/07/25 06:36:13;;;;;;;1.60;1.33;;;;;;;;;;5046300;28;20021;-74
2021/07/25 06:38:40;;;;;;;2.58;1.50;;;;;;;;;;5046917;28;20617;-75
2021/07/25 06:41:06;;;;;;;1.33;1.08;;;;;;;;;;5042434;28;20025;-73
2021/07/25 06:43:32;;;;;;;1.35;1.20;;;;;;;;;;5027343;28;20072;-73
2021/07/25 06:45:58;;;;;;;1.30;1.20;;;;;;;;;;5026708;28;20399;-72
2021/07/25 06:48:29;;;;;;;1.45;1.35;;;;;;;;;;5026381;28;20087;-72
2021/07/25 06:50:59;;;;;;;1.70;1.33;;;;;;;;;;5026501;28;20029;-72
2021/07/25 06:53:27;;;;;;;1.48;1.38;;;;;;;;;;5026176;28;20029;-75
2021/07/25 06:55:54;;;;;;;2.40;1.30;;;;;;;;;;5043668;28;20049;-72
2021/07/25 06:58:20;;;;;;;1.77;1.45;;;;;;;;;;5045432;28;20021;-73
2021/07/25 07:00:46;;;;;;;1.30;1.20;;;;;;;;;;5045536;28;20033;-73
2021/07/25 07:03:13;;;;;;;1.13;1.02;;;;;;;;;;5047899;28;20486;-73
2021/07/25 07:05:39;;;;;;;2.30;1.25;;;;;;;;;;5050715;28;20017;-73
2021/07/25 07:08:06;;;;;;;1.65;1.38;;;;;;;;;;5050239;28;20109;-73
2021/07/25 07:10:36;;;;;;;1.83;1.50;;;;;;;;;;5049659;28;20107;-73
2021/07/25 07:13:03;;;;;;;2.10;1.60;;;;;;;;;;5049964;28;20068;-72
2021/07/25 07:15:30;;;;;;;1.92;1.70;;;;;;;;;;5032659;28;20033;-74
2021/07/25 07:17:57;;;;;;;1.50;1.40;;;;;;;;;;5029713;28;20649;-73
2021/07/25 07:20:24;;;;;;;2.42;1.60;;;;;;;;;;5028342;28;20032;-72
2021/07/25 07:22:56;;;;;;;1.42;1.30;;;;;;;;;;5029275;28;20032;-72
2021/07/25 07:25:23;;;;;;;1.48;1.30;;;;;;;;;;5048135;28;20554;-72
2021/07/25 07:27:50;;;;;;;3.35;1.38;;;;;;;;;;5046307;28;20025;-72
2021/07/25 07:30:17;;;;;;;1.95;1.45;;;;;;;;;;5047967;28;20028;-73
2021/07/25 07:32:43;;;;;;;1.15;1.05;;;;;;;;;;5048259;28;20056;-73
2021/07/25 07:35:09;;;;;;;1.90;1.48;;;;;;;;;;5048992;28;20029;-73
2021/07/25 07:37:36;;;;;;;1.40;1.30;;;;;;;;;;5048114;28;20025;-73
2021/07/25 07:40:03;;;;;;;1.50;1.20;;;;;;;;;;5048054;28;20487;-73
2021/07/25 07:42:29;;;;;;;1.33;1.20;;;;;;;;;;5047615;28;20033;-71
2021/07/25 07:44:55;;;;;;;1.92;1.40;;;;;;;;;;5036977;28;20029;-73
2021/07/25 07:47:23;;;;;;;1.23;1.13;;;;;;;;;;5027805;28;20033;-74
2021/07/25 07:49:49;;;;;;;1.50;1.40;;;;;;;;;;5032712;28;20021;-73
2021/07/25 07:52:15;;;;;;;1.42;1.33;;;;;;;;;;5048120;28;20029;-73
2021/07/25 07:54:41;;;;;;;1.23;1.13;;;;;;;;;;5042833;28;20442;-73
2021/07/25 07:57:07;;;;;;;1.42;1.33;;;;;;;;;;5032630;28;20499;-72
2021/07/25 07:59:33;;;;;;;1.42;1.33;;;;;;;;;;5030630;28;20083;-72
2021/07/25 08:01:59;;;;;;;2.05;1.50;;;;;;;;;;5044092;28;20506;-75
2021/07/25 08:04:25;;;;;;;1.65;1.40;;;;;;;;;;5032700;28;20053;-74
2021/07/25 08:06:51;;;;;;;1.88;1.27;;;;;;;;;;5032600;28;20033;-74
2021/07/25 08:09:18;;;;;;;2.65;1.80;;;;;;;;;;5038817;28;20033;-74
2021/07/25 08:11:45;;;;;;;1.98;1.80;;;;;;;;;;5046337;28;20080;-73
2021/07/25 08:14:11;;;;;;;1.60;1.35;;;;;;;;;;5046979;28;20032;-73
2021/07/25 08:16:38;;;;;;;1.35;1.25;;;;;;;;;;5048461;28;20061;-72
2021/07/25 08:19:05;;;;;;;1.50;1.40;;;;;;;;;;5047522;28;20558;-72
2021/07/25 08:21:31;;;;;;;1.38;1.27;;;;;;;;;;5046738;28;20650;-73
2021/07/25 08:23:57;;;;;;;1.20;1.10;;;;;;;;;;5047670;28;20083;-73
2021/07/25 08:26:23;;;;;;;1.48;1.38;;;;;;;;;;5048152;28;20051;-71
2021/07/25 08:28:49;;;;;;;1.20;1.10;;;;;;;;;;5048077;28;20495;-73
2021/07/25 08:31:15;;;;;;;1.25;1.15;;;;;;;;;;5047447;28;20033;-73
2021/07/25 08:33:41;;;;;;;1.30;1.17;;;;;;;;;;5048122;28;20100;-72
2021/07/25 08:36:07;;;;;;;1.55;1.45;;;;;;;;;;5032756;28;20052;-72
2021/07/25 08:38:33;;;;;;;2.22;1.50;;;;;;;;;;5032314;28;20054;-73
2021/07/25 08:41:13;;;;;;;1.25;1.05;;;;;;;;;;5047884;28;20100;-73
2021/07/25 08:43:40;;;;;;;1.50;1.30;;;;;;;;;;5044471;28;20071;-72
2021/07/25 08:46:12;;;;;;;1.20;1.10;;;;;;;;;;5027689;28;20061;-72
2021/07/25 08:48:44;;;;;;;1.45;1.10;;;;;;;;;;5027370;28;20052;-73
2021/07/25 08:51:15;;;;;;;1.48;1.33;;;;;;;;;;5027735;28;20091;-73
2021/07/25 08:53:46;;;;;;;1.10;1.00;;;;;;;;;;5027429;28;20419;-71
2021/07/25 08:56:14;;;;;;;1.48;1.38;;;;;;;;;;5025571;28;20453;-66
2021/07/25 08:58:43;;;;;;;2.15;1.80;;;;;;;;;;5026921;28;20407;-66
2021/07/25 09:01:13;;;;;;;1.20;1.10;;;;;;;;;;5026794;28;20272;-67
2021/07/25 09:03:40;;;;;;;1.27;1.00;;;;;;;;;;5030033;28;20112;-67
2021/07/25 09:06:06;;;;;;;1.33;1.23;;;;;;;;;;5026919;28;20471;-67
2021/07/25 09:08:34;;;;;;;1.13;1.02;;;;;;;;;;5027318;28;20506;-67
2021/07/25 09:11:06;;;;;;;2.13;1.27;;;;;;;;;;5028375;28;20029;-67
2021/07/25 09:13:32;;;;;;;1.58;1.48;;;;;;;;;;5028249;28;20158;-68
2021/07/25 09:15:58;;;;;;;1.85;1.38;;;;;;;;;;5027298;28;20729;-68
2021/07/25 09:18:24;;;;;;;1.73;1.38;;;;;;;;;;5026277;28;20022;-67
2021/07/25 09:20:50;;;;;;;2.85;1.80;;;;;;;;;;5026222;28;20415;-66
2021/07/25 09:23:17;;;;;;;3.13;2.10;;;;;;;;;;5026928;28;20025;-66
2021/07/25 09:25:46;;;;;;;1.65;1.55;;;;;;;;;;5026656;28;20032;-67
2021/07/25 09:28:14;;;;;;;1.83;1.40;;;;;;;;;;5026361;28;20076;-67
2021/07/25 09:30:41;;;;;;;2.35;1.50;;;;;;;;;;5027189;28;20053;-68
2021/07/25 09:33:23;;;;;;;1.73;1.38;;;;;;;;;;5026859;28;20554;-68
2021/07/25 09:35:49;;;;;;;1.65;1.50;;;;;;;;;;5027669;28;20033;-68
2021/07/25 09:38:17;;;;;;;1.45;1.35;;;;;;;;;;5028810;28;20052;-68
2021/07/25 09:40:44;;;;;;;1.30;1.20;;;;;;;;;;5046059;28;20060;-68
2021/07/25 09:43:10;;;;;;;1.88;1.65;;;;;;;;;;5046918;28;20075;-67
2021/07/25 09:45:55;;;;;;;1.80;1.52;;;;;;;;;;5046643;28;20064;-68
2021/07/25 09:48:21;;;;;;;;;;;;;;;;;;5047054;28;20040;-66
2021/07/25 09:50:47;;;;;;;1.67;1.50;;;;;;;;;;5046490;28;19913;-67
2021/07/25 09:53:13;;;;;;;1.52;1.42;;;;;;;;;;5045815;28;20024;-67
2021/07/25 09:55:40;;;;;;;2.58;1.90;;;;;;;;;;5041417;28;20029;-67
2021/07/25 09:58:06;;;;;;;2.63;1.88;;;;;;;;;;5032122;28;20396;-68
2021/07/25 10:00:42;;;;;;;2.30;1.90;;;;;;;;;;5025203;28;20471;-67
2021/07/25 10:03:32;;;;;;;2.08;1.88;;;;;;;;;;5026200;28;20026;-67
2021/07/25 10:05:58;;;;;;;1.67;1.55;;;;;;;;;;5026077;28;20068;-67
2021/07/25 10:08:24;;;;;;;1.73;1.63;;;;;;;;;;5031767;28;20029;-67
2021/07/25 10:10:52;;;;;;;1.70;1.48;;;;;;;;;;5045527;28;20113;-67
2021/07/25 10:13:20;;;;;;;1.30;1.20;;;;;;;;;;5045834;28;20029;-67
2021/07/25 10:15:56;;;;;;;1.20;1.10;;;;;;;;;;5046062;28;20569;-67
2021/07/25 10:18:22;;;;;;;0.80;0.80;;;;;;;;;;5046388;28;20029;-67
2021/07/25 10:20:54;;;;;;;1.27;1.17;;;;;;;;;;5046172;28;20055;-67
2021/07/25 10:23:22;;;;;;;1.65;1.02;;;;;;;;;;5034156;28;20116;-67
2021/07/25 10:25:50;;;;;;;1.10;1.00;;;;;;;;;;5025865;28;20029;-67
2021/07/25 10:28:20;;;;;;;0.90;0.90;;;;;;;;;;5025471;28;20049;-67
2021/07/25 10:30:49;;;;;;;1.17;0.90;;;;;;;;;;5024180;28;20037;-67
2021/07/25 10:33:16;;;;;;;0.85;0.82;;;;;;;;;;5025556;28;20140;-66
2021/07/25 10:35:43;;;;;;;1.17;1.08;;;;;;;;;;5026283;28;20025;-67
2021/07/25 10:38:09;;;;;;;1.30;1.20;;;;;;;;;;5042135;28;20114;-66
2021/07/25 10:40:36;;;;;;;1.02;0.93;;;;;;;;;;5043335;28;20053;-68
2021/07/25 10:43:03;;;;;;;1.10;1.00;;;;;;;;;;5046222;28;20473;-67
2021/07/25 10:45:29;;;;;;;0.90;0.90;;;;;;;;;;5041685;28;20045;-67
2021/07/25 10:48:15;;;;;;;1.00;1.00;;;;;;;;;;5026989;28;20076;-66
2021/07/25 10:50:42;;;;;;;0.82;0.82;;;;;;;;;;5036796;28;20450;-67
2021/07/25 10:53:08;;;;;;;1.50;0.70;;;;;;;;;;5025591;28;20030;-67
2021/07/25 10:55:42;;;;;;;0.80;0.80;;;;;;;;;;5025287;28;20029;-67
2021/07/25 10:58:11;;;;;;;0.75;0.75;;;;;;;;;;5034439;28;20025;-68
2021/07/25 11:00:40;;;;;;;1.33;0.85;;;;;;;;;;5024915;28;20038;-67
2021/07/25 11:03:06;;;;;;;0.82;0.75;;;;;;;;;;5025585;28;20037;-68
2021/07/25 11:05:33;;;;;;;1.02;0.90;;;;;;;;;;5038185;28;20033;-67
2021/07/25 11:08:00;;;;;;;0.85;0.85;;;;;;;;;;5045199;28;20048;-67
2021/07/25 11:10:30;;;;;;;1.10;0.98;;;;;;;;;;5044956;28;20017;-67
2021/07/25 11:12:57;;;;;;;1.30;1.20;;;;;;;;;;5045571;28;20021;-66
2021/07/25 11:15:35;;;;;;;1.10;1.00;;;;;;;;;;5045598;28;20100;-67
2021/07/25 11:18:05;;;;;;;1.20;1.10;;;;;;;;;;5038749;28;20083;-68
2021/07/25 11:20:35;;;;;;;1.20;1.08;;;;;;;;;;5025888;28;20490;-71
2021/07/25 11:23:02;;;;;;;1.17;1.08;;;;;;;;;;5025847;28;20740;-64
2021/07/25 11:25:34;;;;;;;0.73;0.73;;;;;;;;;;5025315;28;20072;-63
2021/07/25 11:28:01;;;;;;;0.93;0.85;;;;;;;;;;5033770;28;20101;-63
2021/07/25 11:30:45;;;;;;;0.70;0.70;;;;;;;;;;5023843;28;20522;-63
2021/07/25 11:33:30;;;;;;;1.20;1.10;;;;;;;;;;5030228;28;20025;-63
2021/07/25 11:35:58;;;;;;;1.33;1.23;;;;;;;;;;5034577;28;20029;-63
2021/07/25 11:38:25;;;;;;;1.10;1.00;;;;;;;;;;5038105;28;20148;-63
2021/07/25 11:40:55;;;;;;;1.38;1.25;;;;;;;;;;5029506;28;20036;-62
2021/07/25 11:43:21;;;;;;;1.95;1.30;;;;;;;;;;5027790;28;20104;-62
2021/07/25 11:45:47;;;;;;;1.65;1.35;;;;;;;;;;5023870;28;20172;-63
2021/07/25 11:48:22;;;;;;;1.77;1.20;;;;;;;;;;5041947;28;20399;-63
2021/07/25 11:50:49;;;;;;;1.30;1.20;;;;;;;;;;5029419;28;20032;-63
2021/07/25 11:53:15;;;;;;;1.10;1.00;;;;;;;;;;5041659;28;20021;-63
2021/07/25 11:55:42;;;;;;;1.90;1.10;;;;;;;;;;5031125;28;20040;-70
2021/07/25 11:58:12;;;;;;;1.35;1.25;;;;;;;;;;5033092;28;20070;-71
2021/07/25 12:00:38;;;;;;;1.10;1.00;;;;;;;;;;5044987;28;20025;-70
2021/07/25 12:03:04;;;;;;;1.45;1.30;;;;;;;;;;5039394;28;20025;-69
2021/07/25 12:05:31;;;;;;;1.40;1.23;;;;;;;;;;5044443;28;20518;-69
2021/07/25 12:08:10;;;;;;;1.20;1.10;;;;;;;;;;5047236;28;20033;-68
2021/07/25 12:10:37;;;;;;;1.85;1.33;;;;;;;;;;5031852;28;20531;-69
2021/07/25 12:13:07;;;;;;;2.30;1.40;;;;;;;;;;5045513;28;20029;-69
2021/07/25 12:15:34;;;;;;;1.30;1.13;;;;;;;;;;5044351;28;20032;-68
2021/07/25 12:18:03;;;;;;;1.33;1.13;;;;;;;;;;5036289;28;20022;-67
2021/07/25 12:20:31;;;;;;;0.90;0.90;;;;;;;;;;5039209;28;20021;-68
2021/07/25 12:22:58;;;;;;;1.30;1.20;;;;;;;;;;5047743;28;20025;-67
2021/07/25 12:25:28;;;;;;;1.70;1.50;;;;;;;;;;5038613;28;20558;-69
2021/07/25 12:28:09;;;;;;;2.38;1.70;;;;;;;;;;5043161;28;20048;-68
2021/07/25 12:30:42;;;;;;;2.28;1.70;;;;;;;;;;5042539;28;20026;-67
2021/07/25 12:33:08;;;;;;;1.63;1.53;;;;;;;;;;5035943;28;20032;-67
2021/07/25 12:35:35;;;;;;;1.60;1.40;;;;;;;;;;5037527;28;20384;-67
2021/07/25 12:38:01;;;;;;;2.60;1.67;;;;;;;;;;5035545;28;20024;-70
2021/07/25 12:40:29;;;;;;;1.92;1.70;;;;;;;;;;5044688;28;20961;-67
2021/07/25 12:42:57;;;;;;;1.63;1.40;;;;;;;;;;5030858;28;20385;-66
2021/07/25 12:45:32;;;;;;;1.55;1.45;;;;;;;;;;5027829;28;20040;-66
2021/07/25 12:48:20;;;;;;;2.10;1.75;;;;;;;;;;5037643;28;20032;-67
2021/07/25 12:53:37;;;;;;;2.00;1.70;;;;;;;;;;5031345;28;20095;-68
2021/07/25 12:56:04;;;;;;;1.80;1.67;;;;;;;;;;5039063;28;20033;-68
2021/07/25 12:58:35;;;;;;;1.95;1.80;;;;;;;;;;5037791;28;20095;-69
2021/07/25 13:06:17;;;;;;;1.48;1.38;;;;;;;;;;5034303;28;20036;-69
2021/07/25 13:08:44;;;;;;;2.35;1.98;;;;;;;;;;5040942;28;20025;-65
2021/07/25 13:11:12;;;;;;;2.13;1.77;;;;;;;;;;5031252;28;20021;-68
2021/07/25 13:13:38;;;;;;;1.50;1.40;;;;;;;;;;5029095;28;20025;-69
2021/07/25 13:16:05;;;;;;;1.60;1.50;;;;;;;;;;5033119;28;20041;-68
2021/07/25 13:18:33;;;;;;;1.42;1.33;;;;;;;;;;5032734;28;20083;-68
2021/07/25 13:20:59;;;;;;;1.40;1.30;;;;;;;;;;5043818;28;20043;-69
2021/07/25 13:23:25;;;;;;;1.58;1.30;;;;;;;;;;5035738;28;20091;-68
2021/07/25 13:25:51;;;;;;;1.20;1.10;;;;;;;;;;5041652;28;20495;-67
2021/07/25 13:28:17;;;;;;;1.60;1.50;;;;;;;;;;5038191;28;20529;-65
2021/07/25 13:30:43;;;;;;;1.50;1.40;;;;;;;;;;5046851;28;20029;-65
2021/07/25 13:33:10;;;;;;;1.95;1.60;;;;;;;;;;5046755;28;20108;-66
2021/07/25 13:35:36;;;;;;;2.90;1.60;;;;;;;;;;5035558;28;20076;-65
2021/07/25 13:38:02;;;;;;;2.20;2.00;;;;;;;;;;5046472;28;20064;-68
2021/07/25 13:40:28;;;;;;;1.60;1.50;;;;;;;;;;5046562;28;20048;-66
2021/07/25 13:42:54;;;;;;;1.73;1.60;;;;;;;;;;5047016;28;20079;-65
2021/07/25 13:45:20;;;;;;;1.98;1.70;;;;;;;;;;5046035;28;20028;-66
2021/07/25 13:47:46;;;;;;;2.33;1.80;;;;;;;;;;5046097;28;20057;-66
2021/07/25 13:50:13;;;;;;;1.75;1.65;;;;;;;;;;5046336;28;20029;-66
2021/07/25 13:52:39;;;;;;;1.70;1.30;;;;;;;;;;5043866;28;20199;-65
2021/07/25 13:55:05;;;;;;;1.88;1.63;;;;;;;;;;5046755;28;20025;-65
2021/07/25 13:57:31;;;;;;;1.63;1.52;;;;;;;;;;5046175;28;20083;-66
2021/07/25 13:59:58;;;;;;;2.25;1.88;;;;;;;;;;5046003;28;20029;-66
2021/07/25 14:02:24;;;;;;;2.00;1.80;;;;;;;;;;5046119;28;20024;-66
2021/07/25 14:04:54;;;;;;;1.58;1.20;;;;;;;;;;5046210;28;20081;-66
2021/07/25 14:07:20;;;;;;;1.63;1.52;;;;;;;;;;5034685;28;20033;-67
2021/07/25 14:09:46;;;;;;;1.95;1.60;;;;;;;;;;5042894;28;20028;-65
2021/07/25 14:12:12;;;;;;;1.58;1.33;;;;;;;;;;5041570;28;20418;-65
2021/07/25 14:14:38;;;;;;;1.58;1.42;;;;;;;;;;5046092;28;20021;-65
2021/07/25 14:17:04;;;;;;;1.63;1.52;;;;;;;;;;5045754;28;20032;-66
2021/07/25 14:19:31;;;;;;;1.27;1.17;;;;;;;;;;5045444;28;20083;-66
2021/07/25 14:21:57;;;;;;;1.48;1.38;;;;;;;;;;5045561;28;20052;-66
2021/07/25 14:24:23;;;;;;;1.38;1.27;;;;;;;;;;5057651;28;20495;-65
2021/07/25 14:26:49;;;;;;;1.23;1.13;;;;;;;;;;5042217;28;20032;-67
2021/07/25 14:29:15;;;;;;;1.48;1.38;;;;;;;;;;5037736;28;20029;-66
2021/07/25 14:31:41;;;;;;;1.58;1.48;;;;;;;;;;5045539;28;20475;-66
2021/07/25 14:34:07;;;;;;;1.67;1.23;;;;;;;;;;5045798;28;20040;-67
2021/07/25 14:36:33;;;;;;;1.80;1.63;;;;;;;;;;5045338;28;20025;-67
2021/07/25 14:39:00;;;;;;;1.85;1.58;;;;;;;;;;5045679;28;20257;-67
2021/07/25 14:41:27;;;;;;;1.75;1.38;;;;;;;;;;5045852;28;20036;-68
2021/07/25 14:43:54;;;;;;;1.30;1.20;;;;;;;;;;5037235;28;20307;-67
2021/07/25 14:46:20;;;;;;;1.30;1.20;;;;;;;;;;5034157;28;20036;-67
2021/07/25 14:48:47;;;;;;;1.50;1.40;;;;;;;;;;5034037;28;20033;-67
2021/07/25 14:51:14;;;;;;;1.60;1.50;;;;;;;;;;5046567;28;20039;-66
2021/07/25 14:53:43;;;;;;;1.75;1.40;;;;;;;;;;5046983;28;20021;-66